Time;durP1;ratioP1;P1;durP2;ratioP2;P2;SDS_P1;SDS_P2;PMS_P1;PMS_P2;Temp;Humidity;BMP_temperature;BMP_pressure;BME280_temperature;BME280_humidity;BME280_pressure;Samples;Min_cycle;Max_cycle;Signal;HPM_P1;HPM_P2
2021/06/25 00:00:11;;;;;;;43.55;14.30;;;;;;;24.25;69.23;99765.69;1637269;87;21032;-69
2021/06/25 00:02:38;;;;;;;38.05;12.18;;;;;;;24.28;68.84;99764.19;1642847;86;21124;-71
2021/06/25 00:05:07;;;;;;;37.58;12.28;;;;;;;24.29;68.47;99763.05;1637718;86;21025;-70
2021/06/25 00:07:34;;;;;;;34.48;11.88;;;;;;;24.34;66.74;99757.34;1658271;86;21028;-69
2021/06/25 00:10:06;;;;;;;70.52;15.25;;;;;;;24.40;66.73;99757.37;1651779;86;21216;-69
2021/06/25 00:12:33;;;;;;;56.37;15.03;;;;;;;24.43;67.64;99754.50;1637813;86;20973;-73
2021/06/25 00:15:00;;;;;;;51.95;16.10;;;;;;;24.50;67.83;99765.19;1646604;86;21047;-71
2021/06/25 00:17:28;;;;;;;50.63;15.23;;;;;;;24.50;67.98;99767.13;1656045;86;20943;-72
2021/06/25 00:19:56;;;;;;;50.33;16.07;;;;;;;24.45;68.63;99764.03;1654908;86;21067;-73
2021/06/25 00:22:24;;;;;;;44.58;13.53;;;;;;;24.37;68.83;99759.97;1637529;87;21118;-73
2021/06/25 00:24:51;;;;;;;51.80;15.43;;;;;;;24.29;69.79;99757.56;1642153;86;21027;-74
2021/06/25 00:27:17;;;;;;;48.10;14.73;;;;;;;24.27;69.73;99759.83;1644441;86;20988;-72
2021/06/25 00:29:45;;;;;;;45.67;15.50;;;;;;;24.17;70.28;99754.19;1605754;88;21081;-71
2021/06/25 00:32:12;;;;;;;43.50;14.95;;;;;;;24.11;70.82;99762.97;1612141;88;21444;-74
2021/06/25 00:34:39;;;;;;;40.10;13.75;;;;;;;24.01;71.05;99761.45;1597324;89;21175;-71
2021/06/25 00:37:09;;;;;;;45.38;13.60;;;;;;;23.86;71.72;99760.12;1612733;89;21541;-74
2021/06/25 00:39:37;;;;;;;34.58;14.50;;;;;;;23.79;70.72;99759.84;1612537;89;21088;-74
2021/06/25 00:42:06;;;;;;;53.45;14.15;;;;;;;23.83;71.45;99769.04;1578046;89;21017;-74
2021/06/25 00:44:40;;;;;;;45.25;15.55;;;;;;;23.86;71.62;99760.69;1577018;89;21595;-72
2021/06/25 00:47:09;;;;;;;48.20;13.80;;;;;;;23.76;72.23;99759.72;1577475;89;21172;-72
2021/06/25 00:49:38;;;;;;;29.20;11.85;;;;;;;23.68;72.66;99753.16;1613690;89;21031;-72
2021/06/25 00:52:07;;;;;;;26.85;10.53;;;;;;;23.67;72.44;99748.00;1587207;90;21064;-73
2021/06/25 00:54:34;;;;;;;29.50;11.20;;;;;;;23.66;72.41;99743.64;1608752;89;21045;-72
2021/06/25 00:57:01;;;;;;;28.70;10.03;;;;;;;23.62;72.87;99751.75;1613970;88;21625;-71
2021/06/25 00:59:27;;;;;;;20.70;10.05;;;;;;;23.38;74.33;99753.75;1613815;89;21198;-70
2021/06/25 01:01:54;;;;;;;30.37;10.93;;;;;;;23.07;75.75;99750.53;1613381;89;21040;-74
2021/06/25 01:04:20;;;;;;;31.60;11.55;;;;;;;22.88;76.72;99750.14;1613807;89;21053;-76
2021/06/25 01:06:49;;;;;;;30.20;14.03;;;;;;;22.81;76.51;99750.67;1614014;88;20969;-77
2021/06/25 01:09:18;;;;;;;23.47;10.90;;;;;;;22.94;74.91;99755.13;1611153;89;21099;-74
2021/06/25 01:11:46;;;;;;;22.22;10.55;;;;;;;23.13;73.46;99745.09;1596821;89;21224;-74
2021/06/25 01:14:13;;;;;;;26.70;13.38;;;;;;;23.39;71.79;99747.13;1597203;89;21356;-74
2021/06/25 01:16:40;;;;;;;31.05;11.63;;;;;;;23.42;72.95;99743.70;1598120;89;21002;-73
2021/06/25 01:19:13;;;;;;;26.33;10.32;;;;;;;23.27;73.92;99744.85;1597801;89;21032;-75
2021/06/25 01:21:42;;;;;;;20.40;8.30;;;;;;;23.25;72.96;99747.14;1598170;89;21640;-71
2021/06/25 01:24:09;;;;;;;22.67;8.83;;;;;;;23.32;72.48;99744.09;1597522;89;21141;-70
2021/06/25 01:26:36;;;;;;;22.50;9.28;;;;;;;23.44;72.10;99742.84;1597527;89;21026;-70
2021/06/25 01:29:04;;;;;;;28.83;9.40;;;;;;;23.58;71.92;99737.65;1598091;89;21059;-73
2021/06/25 01:31:31;;;;;;;24.47;7.80;;;;;;;23.68;71.45;99735.31;1597224;89;21053;-73
2021/06/25 01:33:58;;;;;;;20.95;7.30;;;;;;;23.81;70.91;99733.42;1611871;89;21076;-71
2021/06/25 01:36:25;;;;;;;15.32;7.60;;;;;;;23.88;70.40;99734.47;1615655;88;22274;-74
2021/06/25 01:38:52;;;;;;;16.25;7.12;;;;;;;23.96;70.10;99736.92;1615535;88;21087;-72
2021/06/25 01:41:19;;;;;;;16.00;7.72;;;;;;;24.02;69.78;99732.83;1615857;88;21633;-68
2021/06/25 01:43:46;;;;;;;25.08;9.95;;;;;;;24.07;69.43;99731.25;1614674;88;21081;-68
2021/06/25 01:46:15;;;;;;;20.35;8.28;;;;;;;24.03;69.84;99728.14;1614850;88;21064;-69
2021/06/25 01:48:42;;;;;;;16.30;7.08;;;;;;;23.99;69.71;99728.55;1615037;88;21129;-69
2021/06/25 01:51:10;;;;;;;26.57;7.87;;;;;;;24.01;69.66;99726.29;1614991;88;20956;-68
2021/06/25 01:53:37;;;;;;;24.87;7.20;;;;;;;23.92;69.98;99729.13;1614807;88;21047;-71
2021/06/25 01:56:04;;;;;;;14.80;7.40;;;;;;;23.95;69.44;99724.88;1612561;89;21556;-70
2021/06/25 01:58:31;;;;;;;15.13;6.67;;;;;;;24.07;68.76;99730.44;1613293;89;21123;-69
2021/06/25 02:01:16;;;;;;;18.27;7.00;;;;;;;24.15;68.28;99722.10;1613005;89;21215;-70
2021/06/25 02:03:47;;;;;;;19.77;7.20;;;;;;;24.27;68.30;99719.97;1613282;89;21061;-69
2021/06/25 02:06:14;;;;;;;24.75;8.90;;;;;;;24.23;67.99;99715.73;1612917;89;21979;-70
2021/06/25 02:08:42;;;;;;;24.72;8.73;;;;;;;24.16;68.29;99714.66;1613086;89;21111;-69
2021/06/25 02:11:11;;;;;;;26.90;9.78;;;;;;;23.99;69.49;99721.69;1612946;89;21080;-68
2021/06/25 02:13:38;;;;;;;18.00;10.10;;;;;;;23.74;70.63;99715.31;1613191;89;21189;-68
2021/06/25 02:16:05;;;;;;;17.30;9.33;;;;;;;23.56;71.48;99723.44;1612920;89;21109;-69
2021/06/25 02:18:32;;;;;;;23.32;8.70;;;;;;;23.42;72.00;99724.48;1613057;89;21020;-70
2021/06/25 02:20:59;;;;;;;24.00;8.65;;;;;;;23.45;71.44;99721.09;1613074;89;21502;-69
2021/06/25 02:23:26;;;;;;;20.70;7.30;;;;;;;23.62;70.82;99715.24;1613061;89;21105;-70
2021/06/25 02:25:54;;;;;;;17.45;7.85;;;;;;;23.86;69.63;99719.48;1612731;89;21174;-69
2021/06/25 02:28:20;;;;;;;25.95;7.33;;;;;;;24.07;68.77;99724.38;1612889;88;21029;-70
2021/06/25 02:30:47;;;;;;;14.93;6.50;;;;;;;24.22;68.15;99727.86;1613133;89;21534;-68
2021/06/25 02:33:14;;;;;;;24.90;8.98;;;;;;;24.31;67.63;99728.60;1599184;89;21111;-68
2021/06/25 02:35:41;;;;;;;30.90;7.75;;;;;;;24.41;67.21;99732.05;1585666;90;21042;-71
2021/06/25 02:38:08;;;;;;;27.25;7.72;;;;;;;24.44;66.97;99731.36;1585646;90;21213;-69
2021/06/25 02:40:35;;;;;;;23.02;7.85;;;;;;;24.42;66.93;99731.69;1585521;90;20982;-70
2021/06/25 02:43:01;;;;;;;36.77;8.60;;;;;;;24.40;66.97;99730.44;1585632;90;21058;-68
2021/06/25 02:45:30;;;;;;;38.85;9.05;;;;;;;24.37;67.32;99732.48;1585953;89;20943;-68
2021/06/25 02:47:57;;;;;;;27.82;8.43;;;;;;;24.31;67.58;99735.47;1585567;89;21066;-68
2021/06/25 02:50:23;;;;;;;23.67;9.08;;;;;;;24.33;67.55;99739.23;1585629;90;21182;-68
2021/06/25 02:52:50;;;;;;;32.40;9.58;;;;;;;24.34;67.54;99740.84;1585613;90;21023;-68
2021/06/25 02:55:19;;;;;;;21.15;7.30;;;;;;;24.33;68.02;99745.54;1585785;90;21059;-68
2021/06/25 02:57:46;;;;;;;14.10;7.83;;;;;;;24.34;67.46;99742.22;1585691;90;21578;-68
2021/06/25 03:00:16;;;;;;;14.63;6.62;;;;;;;24.40;67.25;99743.63;1586637;89;21170;-67
2021/06/25 03:02:43;;;;;;;18.32;7.55;;;;;;;24.44;67.18;99740.98;1601861;89;21142;-69
2021/06/25 03:05:13;;;;;;;15.20;7.35;;;;;;;24.45;67.39;99737.09;1585656;90;21069;-69
2021/06/25 03:07:40;;;;;;;20.60;8.70;;;;;;;24.46;67.39;99745.59;1585983;89;21572;-68
2021/06/25 03:10:08;;;;;;;21.93;10.48;;;;;;;24.46;68.25;99737.34;1592900;89;21055;-69
2021/06/25 03:12:35;;;;;;;27.62;11.10;;;;;;;24.36;68.88;99741.33;1585292;90;21046;-69
2021/06/25 03:15:07;;;;;;;48.13;13.28;;;;;;;24.24;70.11;99739.91;1585586;90;21167;-69
2021/06/25 03:17:34;;;;;;;49.75;14.38;;;;;;;24.11;70.87;99743.16;1608247;89;21084;-67
2021/06/25 03:20:01;;;;;;;49.70;12.10;;;;;;;24.04;71.10;99744.84;1608330;89;21002;-68
2021/06/25 03:22:27;;;;;;;45.10;15.05;;;;;;;24.05;70.83;99753.32;1595125;89;21082;-69
2021/06/25 03:24:54;;;;;;;43.55;9.95;;;;;;;24.07;70.76;99748.30;1604430;89;21150;-68
2021/06/25 03:27:21;;;;;;;38.75;11.78;;;;;;;24.10;70.85;99748.98;1595507;89;21953;-68
2021/06/25 03:29:50;;;;;;;39.38;11.35;;;;;;;24.13;71.01;99744.98;1608247;89;20981;-69
2021/06/25 03:32:17;;;;;;;24.92;9.75;;;;;;;24.17;71.11;99749.29;1612263;89;21097;-67
2021/06/25 03:34:44;;;;;;;27.90;9.20;;;;;;;24.21;71.20;99755.71;1601893;89;21043;-70
2021/06/25 03:37:10;;;;;;;31.05;10.68;;;;;;;24.23;71.29;99758.91;1601949;89;21532;-68
2021/06/25 03:39:37;;;;;;;33.63;7.72;;;;;;;24.27;71.30;99755.14;1594452;89;21170;-66
2021/06/25 03:42:06;;;;;;;21.27;8.15;;;;;;;24.29;70.67;99758.36;1585455;90;21098;-68
2021/06/25 03:44:33;;;;;;;13.78;7.37;;;;;;;24.30;69.85;99750.36;1585708;90;21570;-68
2021/06/25 03:47:00;;;;;;;22.32;8.70;;;;;;;24.35;69.45;99750.70;1585645;90;21058;-71
2021/06/25 03:49:26;;;;;;;27.02;7.65;;;;;;;24.42;69.08;99753.69;1585633;90;21484;-69
2021/06/25 03:51:53;;;;;;;25.25;8.23;;;;;;;24.56;68.84;99756.12;1601315;89;21238;-69
2021/06/25 03:54:20;;;;;;;18.23;7.78;;;;;;;24.66;68.66;99761.98;1601802;89;21020;-68
2021/06/25 03:56:47;;;;;;;41.70;9.03;;;;;;;24.71;68.51;99756.27;1601762;89;21014;-68
2021/06/25 03:59:14;;;;;;;18.60;8.43;;;;;;;24.79;68.53;99753.20;1601738;89;21580;-70
2021/06/25 04:01:42;;;;;;;21.90;9.95;;;;;;;24.86;68.48;99750.66;1601778;89;21136;-69
2021/06/25 04:04:09;;;;;;;19.80;9.53;;;;;;;24.92;68.21;99749.90;1601779;89;21813;-69
2021/06/25 04:06:38;;;;;;;19.60;8.28;;;;;;;24.95;68.09;99742.32;1600116;89;20929;-70
2021/06/25 04:09:06;;;;;;;14.95;8.20;;;;;;;25.02;67.88;99739.81;1597129;89;21001;-68
2021/06/25 04:11:33;;;;;;;19.25;8.10;;;;;;;25.13;67.50;99735.45;1599984;89;21044;-69
2021/06/25 04:14:00;;;;;;;20.92;8.90;;;;;;;25.23;67.07;99735.56;1601748;89;21721;-68
2021/06/25 04:16:28;;;;;;;16.45;8.65;;;;;;;25.33;67.04;99728.17;1602093;89;21176;-68
2021/06/25 04:18:55;;;;;;;17.87;6.85;;;;;;;25.41;66.30;99724.51;1601975;89;21564;-75
2021/06/25 04:21:22;;;;;;;14.80;5.92;;;;;;;25.51;65.62;99722.66;1601723;89;21744;-69
2021/06/25 04:23:50;;;;;;;22.77;6.30;;;;;;;25.58;65.00;99722.88;1601778;89;21550;-68
2021/06/25 04:26:17;;;;;;;24.00;5.95;;;;;;;25.67;64.08;99715.84;1601687;89;21093;-68
2021/06/25 04:28:43;;;;;;;17.40;6.33;;;;;;;25.74;62.82;99702.28;1598491;89;21160;-69
2021/06/25 04:31:11;;;;;;;15.45;5.33;;;;;;;25.84;61.93;99707.30;1598817;89;21032;-70
2021/06/25 04:33:39;;;;;;;23.47;6.50;;;;;;;25.93;61.60;99709.32;1600851;88;21052;-68
2021/06/25 04:36:07;;;;;;;15.13;5.87;;;;;;;26.01;61.43;99706.98;1599763;89;21016;-69
2021/06/25 04:38:33;;;;;;;12.73;5.17;;;;;;;26.09;60.68;99712.90;1599809;89;21040;-69
2021/06/25 04:41:00;;;;;;;13.93;5.62;;;;;;;26.17;60.38;99708.39;1599734;89;21110;-68
2021/06/25 04:43:27;;;;;;;13.95;5.08;;;;;;;26.25;60.48;99708.83;1576436;89;21048;-67
2021/06/25 04:45:54;;;;;;;5.83;4.80;;;;;;;26.31;59.56;99702.71;1599584;89;20976;-68
2021/06/25 04:48:21;;;;;;;15.13;7.05;;;;;;;26.39;59.22;99710.00;1588045;89;21536;-68
2021/06/25 04:50:48;;;;;;;13.88;5.17;;;;;;;26.49;58.64;99714.19;1562508;91;21492;-68
2021/06/25 04:53:15;;;;;;;17.98;6.30;;;;;;;26.56;58.29;99714.39;1584326;90;21171;-69
2021/06/25 04:55:42;;;;;;;16.95;5.28;;;;;;;26.64;57.94;99717.54;1584186;90;21050;-69
2021/06/25 04:58:11;;;;;;;15.50;4.85;;;;;;;26.72;57.13;99717.93;1584430;90;21050;-68
2021/06/25 05:00:38;;;;;;;13.15;4.95;;;;;;;26.81;56.76;99715.78;1582503;90;21069;-71
2021/06/25 05:03:06;;;;;;;23.05;4.87;;;;;;;26.90;56.18;99714.27;1562119;91;21552;-74
2021/06/25 05:05:35;;;;;;;16.85;5.50;;;;;;;27.00;55.20;99717.06;1584368;90;21209;-68
2021/06/25 05:08:03;;;;;;;19.85;6.45;;;;;;;27.09;54.50;99716.29;1584202;90;20993;-71
2021/06/25 05:10:30;;;;;;;16.17;5.47;;;;;;;27.18;54.19;99714.93;1583603;90;21591;-68
2021/06/25 05:12:56;;;;;;;22.30;5.37;;;;;;;27.26;53.81;99714.50;1584658;90;21516;-70
2021/06/25 05:15:23;;;;;;;19.23;4.50;;;;;;;27.31;52.78;99715.02;1594653;90;21031;-69
2021/06/25 05:17:51;;;;;;;18.62;4.65;;;;;;;27.39;52.06;99716.55;1594897;90;21777;-69
2021/06/25 05:20:18;;;;;;;14.13;4.05;;;;;;;27.46;51.86;99717.52;1594740;90;21173;-69
2021/06/25 05:22:45;;;;;;;15.48;5.80;;;;;;;27.53;51.11;99708.62;1594451;90;21496;-68
2021/06/25 05:25:14;;;;;;;13.95;5.05;;;;;;;27.60;50.82;99707.38;1594773;90;21160;-68
2021/06/25 05:27:41;;;;;;;17.20;4.85;;;;;;;27.67;50.89;99709.69;1594937;89;21080;-70
2021/06/25 05:30:10;;;;;;;18.30;3.83;;;;;;;27.75;51.02;99715.60;1592945;90;21806;-72
2021/06/25 05:32:37;;;;;;;12.13;4.65;;;;;;;27.84;50.14;99715.38;1579473;90;21096;-67
2021/06/25 05:35:05;;;;;;;12.75;4.05;;;;;;;27.94;50.17;99723.09;1595964;87;21556;-69
2021/06/25 05:37:32;;;;;;;11.65;4.05;;;;;;;28.02;49.29;99712.95;1598270;89;21656;-69
2021/06/25 05:39:59;;;;;;;15.55;5.05;;;;;;;28.11;48.74;99719.08;1598334;89;21038;-69
2021/06/25 05:42:26;;;;;;;23.87;4.28;;;;;;;28.19;48.48;99723.60;1598286;88;21202;-69
2021/06/25 05:44:53;;;;;;;20.37;5.37;;;;;;;28.24;48.05;99724.69;1598702;89;21539;-69
2021/06/25 05:47:20;;;;;;;21.07;4.87;;;;;;;28.32;47.06;99724.22;1598531;89;20923;-69
2021/06/25 05:49:47;;;;;;;14.58;4.22;;;;;;;28.40;46.01;99729.51;1598398;88;21110;-70
2021/06/25 05:52:14;;;;;;;9.93;4.00;;;;;;;28.48;45.27;99729.06;1598507;89;21053;-70
2021/06/25 05:54:41;;;;;;;21.80;5.17;;;;;;;28.57;45.07;99732.39;1598509;89;21154;-69
2021/06/25 05:57:08;;;;;;;16.30;3.77;;;;;;;28.65;45.19;99734.68;1598683;88;21572;-67
2021/06/25 05:59:35;;;;;;;19.57;4.62;;;;;;;28.71;45.30;99734.05;1598593;89;21082;-68
2021/06/25 06:02:03;;;;;;;14.90;4.72;;;;;;;28.78;45.36;99731.95;1598118;89;21062;-70
2021/06/25 06:04:29;;;;;;;12.88;3.77;;;;;;;28.85;45.56;99734.28;1598479;89;21090;-69
2021/06/25 06:06:57;;;;;;;15.78;4.47;;;;;;;28.91;45.57;99728.65;1598627;88;21527;-71
2021/06/25 06:09:24;;;;;;;12.47;4.28;;;;;;;28.99;45.66;99724.80;1598450;88;21026;-70
2021/06/25 06:11:51;;;;;;;22.10;4.30;;;;;;;29.07;45.65;99729.86;1598215;89;21013;-71
2021/06/25 06:14:17;;;;;;;14.58;4.87;;;;;;;29.14;45.48;99738.30;1598492;89;21093;-69
2021/06/25 06:16:44;;;;;;;11.25;4.05;;;;;;;29.23;44.97;99742.17;1598487;89;21085;-72
2021/06/25 06:19:11;;;;;;;14.50;4.40;;;;;;;29.30;43.79;99747.83;1598419;89;21153;-71
2021/06/25 06:33:42;;;;;;;9.00;3.02;;;;;;;29.71;42.75;99751.00;1547281;92;21273;-69
2021/06/25 06:35:18;;;;;;;12.98;4.50;;;;;;;29.80;42.77;99752.89;1499462;94;21132;-69
2021/06/25 06:37:50;;;;;;;23.02;4.30;;;;;;;29.87;42.81;99750.22;1545687;90;21553;-69
2021/06/25 06:40:19;;;;;;;15.18;4.08;;;;;;;29.96;43.29;99751.93;1590621;89;21579;-70
2021/06/25 06:42:47;;;;;;;13.35;5.80;;;;;;;30.03;43.21;99755.57;1605767;89;21549;-68
2021/06/25 06:45:18;;;;;;;16.12;5.15;;;;;;;30.08;43.27;99764.95;1605873;88;21103;-68
2021/06/25 06:47:45;;;;;;;18.37;4.97;;;;;;;30.13;43.55;99763.22;1605980;89;21089;-71
2021/06/25 06:50:13;;;;;;;11.40;3.92;;;;;;;30.19;43.50;99770.63;1605742;89;21024;-69
2021/06/25 06:52:48;;;;;;;15.88;4.20;;;;;;;30.23;43.20;99766.71;1605899;88;21113;-68
2021/06/25 06:55:16;;;;;;;15.28;4.65;;;;;;;30.29;43.30;99772.14;1606021;88;21084;-70
2021/06/25 06:57:44;;;;;;;14.90;3.72;;;;;;;30.35;43.45;99768.44;1605838;89;21117;-69
2021/06/25 07:00:13;;;;;;;10.95;4.78;;;;;;;30.38;42.91;99771.02;1605790;89;21074;-67
2021/06/25 07:02:40;;;;;;;9.78;3.72;;;;;;;30.40;42.50;99772.84;1606057;89;21043;-68
2021/06/25 07:05:09;;;;;;;21.73;4.72;;;;;;;30.40;42.50;99770.06;1605840;89;21067;-68
2021/06/25 07:07:35;;;;;;;15.93;5.35;;;;;;;30.44;42.63;99768.92;1606087;89;21046;-69
2021/06/25 07:10:03;;;;;;;7.97;3.27;;;;;;;30.47;42.81;99767.38;1605833;89;21105;-69
2021/06/25 07:12:31;;;;;;;17.73;5.03;;;;;;;30.51;42.43;99776.53;1605873;89;20994;-68
2021/06/25 07:15:00;;;;;;;14.45;5.58;;;;;;;30.53;42.22;99772.21;1611670;88;20929;-69
2021/06/25 07:17:27;;;;;;;20.70;4.60;;;;;;;30.59;42.18;99772.08;1619056;88;21109;-69
2021/06/25 07:19:53;;;;;;;7.33;3.92;;;;;;;30.63;41.82;99767.36;1619058;88;21557;-70
2021/06/25 07:22:20;;;;;;;6.72;3.45;;;;;;;30.68;41.47;99764.81;1608707;88;21118;-70
2021/06/25 07:24:47;;;;;;;12.28;4.35;;;;;;;30.73;41.08;99768.64;1605798;89;20979;-69
2021/06/25 07:27:14;;;;;;;16.20;4.87;;;;;;;30.74;41.04;99757.13;1605787;89;21079;-68
2021/06/25 07:29:42;;;;;;;16.73;5.12;;;;;;;30.79;41.80;99757.98;1605826;89;21119;-70
2021/06/25 07:32:09;;;;;;;15.63;5.33;;;;;;;30.86;41.18;99755.24;1605773;89;21099;-68
2021/06/25 07:34:37;;;;;;;17.10;5.42;;;;;;;30.94;40.85;99749.36;1605747;88;21981;-68
2021/06/25 07:37:06;;;;;;;15.18;5.40;;;;;;;31.03;40.95;99745.68;1605767;89;21066;-68
2021/06/25 07:39:33;;;;;;;17.45;4.35;;;;;;;31.14;40.43;99752.71;1606190;88;21544;-69
2021/06/25 07:42:00;;;;;;;13.30;3.45;;;;;;;31.23;39.28;99750.39;1605771;88;21023;-68
2021/06/25 07:44:27;;;;;;;6.00;3.83;;;;;;;31.36;37.64;99743.94;1605750;89;21115;-68
2021/06/25 07:46:53;;;;;;;17.85;3.95;;;;;;;31.43;37.47;99744.77;1605689;89;21518;-79
2021/06/25 07:49:20;;;;;;;16.67;3.80;;;;;;;31.47;36.88;99740.02;1605797;89;20999;-69
2021/06/25 07:51:48;;;;;;;6.70;3.20;;;;;;;31.52;36.73;99741.63;1605853;89;21038;-69
2021/06/25 07:54:15;;;;;;;10.43;4.47;;;;;;;31.57;36.87;99736.53;1605811;89;21575;-69
2021/06/25 07:56:42;;;;;;;18.90;5.70;;;;;;;31.63;37.40;99736.16;1605894;89;21046;-69
2021/06/25 07:59:09;;;;;;;16.93;3.98;;;;;;;31.65;38.09;99737.97;1605984;89;21160;-68
2021/06/25 08:01:36;;;;;;;6.87;3.45;;;;;;;31.67;38.42;99738.35;1609269;88;21031;-69
2021/06/25 08:04:03;;;;;;;17.32;4.80;;;;;;;31.71;38.62;99744.73;1605863;89;21145;-70
2021/06/25 08:06:30;;;;;;;8.75;3.45;;;;;;;31.77;39.19;99740.39;1605774;89;21095;-69
2021/06/25 08:08:57;;;;;;;23.07;4.47;;;;;;;31.81;38.98;99742.00;1605940;88;21098;-68
2021/06/25 08:11:25;;;;;;;11.48;3.85;;;;;;;31.86;39.13;99744.41;1605670;89;21183;-69
2021/06/25 08:13:52;;;;;;;21.48;5.25;;;;;;;31.90;39.08;99743.81;1605746;89;21070;-69
2021/06/25 08:16:20;;;;;;;19.73;4.35;;;;;;;31.97;38.35;99743.86;1605871;89;20959;-68
2021/06/25 08:18:47;;;;;;;16.25;5.10;;;;;;;32.05;38.14;99744.66;1610433;88;21062;-71
2021/06/25 08:21:14;;;;;;;34.38;4.67;;;;;;;32.13;38.15;99747.73;1618414;88;21021;-70
2021/06/25 08:23:42;;;;;;;9.68;4.15;;;;;;;32.19;37.64;99747.52;1618977;88;21201;-69
2021/06/25 08:26:09;;;;;;;17.23;4.40;;;;;;;32.19;37.75;99749.50;1611564;88;21149;-68
2021/06/25 08:28:38;;;;;;;15.40;4.62;;;;;;;32.25;37.91;99745.95;1605697;89;21037;-70
2021/06/25 08:31:06;;;;;;;11.73;4.40;;;;;;;32.32;37.08;99747.97;1605697;89;21054;-69
2021/06/25 08:33:32;;;;;;;17.07;4.33;;;;;;;32.34;36.71;99752.53;1605723;89;21103;-68
2021/06/25 08:35:59;;;;;;;23.05;4.58;;;;;;;32.39;36.05;99756.31;1609980;88;21945;-68
2021/06/25 08:38:26;;;;;;;10.45;4.12;;;;;;;32.47;35.26;99752.97;1610627;89;21029;-71
2021/06/25 08:40:56;;;;;;;13.78;4.08;;;;;;;32.49;34.91;99751.36;1566925;90;21096;-69
2021/06/25 08:43:23;;;;;;;15.55;3.20;;;;;;;32.55;35.26;99757.34;1592097;90;21595;-68
2021/06/25 08:45:50;;;;;;;10.25;3.92;;;;;;;32.61;34.74;99764.13;1586092;90;21091;-68
2021/06/25 08:48:17;;;;;;;7.22;4.35;;;;;;;32.67;33.78;99759.17;1585659;90;21174;-68
2021/06/25 08:50:49;;;;;;;26.62;5.37;;;;;;;32.74;33.76;99755.01;1610023;89;21011;-69
2021/06/25 08:53:16;;;;;;;21.55;5.30;;;;;;;32.82;34.24;99747.44;1610421;89;21125;-69
2021/06/25 08:55:44;;;;;;;10.50;4.17;;;;;;;32.83;35.09;99750.42;1610985;89;21086;-69
2021/06/25 08:58:17;;;;;;;21.75;4.47;;;;;;;32.84;35.27;99742.27;1611075;89;21098;-69
2021/06/25 09:00:44;;;;;;;15.30;4.47;;;;;;;32.90;35.93;99747.66;1593712;88;22260;-67
2021/06/25 09:03:25;;;;;;;18.70;4.67;;;;;;;32.96;36.53;99743.84;1590876;89;21051;-70
2021/06/25 09:05:53;;;;;;;14.53;4.53;;;;;;;33.03;36.60;99748.83;1611160;89;21042;-68
2021/06/25 09:08:28;;;;;;;10.48;3.85;;;;;;;33.08;36.27;99743.45;1610980;89;21014;-69
2021/06/25 09:10:58;;;;;;;11.30;4.80;;;;;;;33.13;36.88;99737.47;1592721;89;21166;-69
2021/06/25 09:13:36;;;;;;;15.75;4.78;;;;;;;33.16;37.35;99734.70;1585661;90;21883;-69
2021/06/25 09:16:27;;;;;;;27.75;5.30;;;;;;;33.25;37.83;99739.27;1589193;89;21014;-68
2021/06/25 09:19:05;;;;;;;15.58;4.80;;;;;;;33.35;37.88;99734.06;1588256;89;21090;-69
2021/06/25 09:21:41;;;;;;;10.93;3.85;;;;;;;33.40;37.69;99730.27;1587076;89;21052;-71
2021/06/25 09:24:22;;;;;;;19.77;5.25;;;;;;;33.45;37.21;99728.45;1585707;90;21094;-69
2021/06/25 09:26:50;;;;;;;10.38;3.95;;;;;;;33.50;36.24;99718.87;1585834;89;21838;-69
2021/06/25 09:29:22;;;;;;;7.58;3.45;;;;;;;33.53;35.24;99721.65;1591462;89;21064;-70
2021/06/25 09:32:08;;;;;;;11.57;3.72;;;;;;;33.59;34.71;99723.43;1585776;90;32605;-71
2021/06/25 09:34:50;;;;;;;28.77;4.95;;;;;;;33.61;34.83;99726.63;1587618;88;20986;-69
2021/06/25 09:37:19;;;;;;;11.78;5.15;;;;;;;33.63;34.97;99722.22;1605883;89;21040;-72
2021/06/25 09:40:04;;;;;;;17.62;3.98;;;;;;;33.59;34.85;99725.63;1604701;89;21851;-70
2021/06/25 09:42:33;;;;;;;15.13;5.22;;;;;;;33.58;34.66;99727.41;1605627;89;21031;-70
2021/06/25 09:45:12;;;;;;;9.53;4.35;;;;;;;33.58;33.96;99728.80;1605675;89;21031;-71
2021/06/25 09:47:53;;;;;;;13.90;3.47;;;;;;;33.58;34.11;99728.80;1605657;89;21019;-74
2021/06/25 09:50:32;;;;;;;10.70;3.22;;;;;;;33.63;33.24;99725.60;1579347;90;21522;-68
2021/06/25 09:53:04;;;;;;;9.33;4.40;;;;;;;33.66;33.76;99728.41;1579283;90;21195;-68
2021/06/25 09:55:52;;;;;;;8.23;3.85;;;;;;;33.56;34.10;99729.83;1614495;88;21617;-68
2021/06/25 09:58:41;;;;;;;11.28;4.37;;;;;;;33.52;34.29;99723.47;1610688;88;21078;-68
2021/06/25 10:01:24;;;;;;;15.43;4.28;;;;;;;33.48;34.31;99721.30;1605632;88;21062;-69
2021/06/25 10:03:56;;;;;;;11.35;3.37;;;;;;;33.46;34.50;99725.88;1605808;89;21031;-70
2021/06/25 10:06:32;;;;;;;13.35;3.75;;;;;;;33.49;33.92;99721.47;1605928;89;21816;-79
2021/06/25 10:08:59;;;;;;;9.15;3.90;;;;;;;33.45;33.09;99722.09;1601023;87;21063;-72
2021/06/25 10:11:29;;;;;;;9.58;4.37;;;;;;;33.48;33.88;99723.46;1605520;89;21554;-76
2021/06/25 10:13:59;;;;;;;11.80;3.90;;;;;;;33.57;33.91;99715.48;1607725;89;21073;-74
2021/06/25 10:16:26;;;;;;;13.50;4.10;;;;;;;33.65;33.92;99706.48;1615265;88;21072;-74
2021/06/25 10:18:58;;;;;;;11.35;3.85;;;;;;;33.79;33.46;99708.44;1608525;88;21885;-75
2021/06/25 10:21:32;;;;;;;12.53;4.33;;;;;;;33.93;33.13;99709.77;1606385;88;21018;-76
2021/06/25 10:24:03;;;;;;;12.98;4.97;;;;;;;34.13;33.04;99703.27;1617318;88;21632;-78
2021/06/25 10:26:30;;;;;;;11.33;5.25;;;;;;;34.34;32.76;99699.55;1612782;88;21020;-77
2021/06/25 10:28:57;;;;;;;7.87;4.85;;;;;;;34.49;32.88;99707.23;1605719;89;21096;-77
2021/06/25 10:31:25;;;;;;;8.33;4.58;;;;;;;34.65;32.30;99706.11;1609233;88;21217;-79
2021/06/25 10:33:54;;;;;;;14.70;5.20;;;;;;;34.68;32.16;99703.91;1587988;89;21058;-76
2021/06/25 10:36:31;;;;;;;10.63;4.40;;;;;;;34.73;32.73;99700.67;1605775;88;21489;-77
2021/06/25 10:39:10;;;;;;;10.85;4.62;;;;;;;34.85;32.77;99700.78;1605927;89;21523;-70
2021/06/25 10:41:50;;;;;;;6.15;3.75;;;;;;;34.98;32.21;99701.25;1605976;88;21110;-72
2021/06/25 10:44:45;;;;;;;10.25;4.05;;;;;;;35.10;31.72;99704.14;1613447;88;21809;-70
2021/06/25 10:47:29;;;;;;;9.08;4.25;;;;;;;35.13;31.73;99703.90;1602918;88;21010;-71
2021/06/25 10:50:13;;;;;;;4.67;3.72;;;;;;;35.13;31.31;99696.91;1613183;88;21074;-70
2021/06/25 10:52:39;;;;;;;7.33;4.72;;;;;;;35.25;31.11;99697.83;1606695;89;21094;-73
2021/06/25 10:55:12;;;;;;;;;;;;;;;35.26;31.22;99698.78;1614249;89;21091;-73
2021/06/25 10:57:56;;;;;;;9.00;3.20;;;;;;;35.26;30.79;99699.38;1612524;89;21181;-73
2021/06/25 11:00:26;;;;;;;10.68;5.03;;;;;;;35.29;30.32;99698.58;1593790;88;21015;-75
2021/06/25 11:02:53;;;;;;;11.53;2.98;;;;;;;35.36;30.59;99703.47;1595573;89;21115;-74
2021/06/25 11:05:33;;;;;;;13.00;3.92;;;;;;;35.31;30.24;99703.13;1599620;89;21541;-75
2021/06/25 11:08:19;;;;;;;11.73;4.67;;;;;;;35.14;30.72;99693.70;1606821;89;21071;-74
2021/06/25 11:10:55;;;;;;;6.12;4.00;;;;;;;35.08;30.08;99698.75;1606402;89;21290;-76
2021/06/25 11:13:25;;;;;;;5.20;3.15;;;;;;;34.98;29.39;99692.06;1587404;89;21666;-77
2021/06/25 11:15:57;;;;;;;11.08;3.17;;;;;;;34.96;29.74;99691.70;1606702;88;21116;-73
2021/06/25 11:18:27;;;;;;;10.72;3.80;;;;;;;35.01;30.32;99693.42;1606516;89;21172;-72
2021/06/25 11:21:02;;;;;;;8.88;4.15;;;;;;;35.01;30.28;99676.64;1607480;87;21080;-76
2021/06/25 11:23:43;;;;;;;8.90;4.67;;;;;;;35.03;30.79;99690.22;1616359;87;21189;-78
2021/06/25 11:26:25;;;;;;;4.83;3.80;;;;;;;35.05;30.67;99687.81;1614670;86;21355;-72
2021/06/25 11:28:55;;;;;;;10.48;4.08;;;;;;;35.09;31.13;99685.77;1608193;89;21162;-76
2021/06/25 11:31:27;;;;;;;12.05;4.42;;;;;;;35.05;31.46;99680.02;1608246;89;21114;-77
2021/06/25 11:33:59;;;;;;;8.23;3.42;;;;;;;34.93;31.41;99677.13;1610561;87;21095;-76
2021/06/25 11:36:40;;;;;;;5.80;3.43;;;;;;;34.89;31.18;99673.58;1608579;89;21158;-83
2021/06/25 11:39:32;;;;;;;6.85;3.95;;;;;;;34.79;31.37;99671.08;1588196;88;21097;-74
2021/06/25 11:42:12;;;;;;;7.25;3.33;;;;;;;34.79;31.04;99671.68;1615333;88;20970;-76
2021/06/25 11:44:43;;;;;;;9.20;4.12;;;;;;;34.76;31.20;99669.12;1623949;88;21515;-75